sensor_id;sensor_type;location;lat;lon;timestamp;P1;durP1;ratioP1;P2;durP2;ratioP2
13067;SDS011;6600;51.362;6.686;2022-07-23T00:00:48;3.03;;;2.27;;
13067;SDS011;6600;51.362;6.686;2022-07-23T00:03:14;2.73;;;2.43;;
13067;SDS011;6600;51.362;6.686;2022-07-23T00:05:39;3.07;;;1.70;;
13067;SDS011;6600;51.362;6.686;2022-07-23T00:08:05;2.67;;;2.17;;
13067;SDS011;6600;51.362;6.686;2022-07-23T00:10:31;2.27;;;2.07;;
13067;SDS011;6600;51.362;6.686;2022-07-23T00:12:57;3.37;;;2.40;;
13067;SDS011;6600;51.362;6.686;2022-07-23T00:15:22;4.07;;;2.37;;
13067;SDS011;6600;51.362;6.686;2022-07-23T00:17:48;5.87;;;2.80;;
13067;SDS011;6600;51.362;6.686;2022-07-23T00:20:13;2.37;;;2.17;;
13067;SDS011;6600;51.362;6.686;2022-07-23T00:22:49;2.20;;;1.67;;
13067;SDS011;6600;51.362;6.686;2022-07-23T00:25:15;4.10;;;2.23;;
13067;SDS011;6600;51.362;6.686;2022-07-23T00:27:41;2.23;;;2.03;;
13067;SDS011;6600;51.362;6.686;2022-07-23T00:30:07;2.93;;;2.50;;
13067;SDS011;6600;51.362;6.686;2022-07-23T00:32:44;3.27;;;2.37;;
13067;SDS011;6600;51.362;6.686;2022-07-23T00:35:11;3.17;;;2.37;;
13067;SDS011;6600;51.362;6.686;2022-07-23T00:37:36;2.23;;;2.00;;
13067;SDS011;6600;51.362;6.686;2022-07-23T00:40:01;2.43;;;2.10;;
13067;SDS011;6600;51.362;6.686;2022-07-23T00:42:27;2.80;;;2.33;;
13067;SDS011;6600;51.362;6.686;2022-07-23T00:44:52;1.97;;;1.70;;
13067;SDS011;6600;51.362;6.686;2022-07-23T00:47:18;3.57;;;1.70;;
13067;SDS011;6600;51.362;6.686;2022-07-23T00:49:43;1.80;;;1.70;;
13067;SDS011;6600;51.362;6.686;2022-07-23T00:52:08;2.83;;;1.80;;
13067;SDS011;6600;51.362;6.686;2022-07-23T00:54:34;3.00;;;2.17;;
13067;SDS011;6600;51.362;6.686;2022-07-23T00:57:00;3.60;;;2.03;;
13067;SDS011;6600;51.362;6.686;2022-07-23T00:59:25;3.20;;;2.50;;
13067;SDS011;6600;51.362;6.686;2022-07-23T01:01:50;6.60;;;2.00;;
13067;SDS011;6600;51.362;6.686;2022-07-23T01:04:16;2.63;;;2.10;;
13067;SDS011;6600;51.362;6.686;2022-07-23T01:06:42;2.03;;;1.83;;
13067;SDS011;6600;51.362;6.686;2022-07-23T01:09:08;2.50;;;2.13;;
13067;SDS011;6600;51.362;6.686;2022-07-23T01:11:34;4.83;;;3.40;;
13067;SDS011;6600;51.362;6.686;2022-07-23T01:14:10;2.63;;;2.43;;
13067;SDS011;6600;51.362;6.686;2022-07-23T01:16:41;3.17;;;2.00;;
13067;SDS011;6600;51.362;6.686;2022-07-23T01:19:07;3.43;;;2.70;;
13067;SDS011;6600;51.362;6.686;2022-07-23T01:21:37;4.80;;;2.20;;
13067;SDS011;6600;51.362;6.686;2022-07-23T01:24:07;3.33;;;2.53;;
13067;SDS011;6600;51.362;6.686;2022-07-23T01:26:34;3.87;;;2.33;;
13067;SDS011;6600;51.362;6.686;2022-07-23T01:29:00;2.77;;;2.10;;
13067;SDS011;6600;51.362;6.686;2022-07-23T01:31:26;5.73;;;2.57;;
13067;SDS011;6600;51.362;6.686;2022-07-23T01:33:52;2.93;;;2.23;;
13067;SDS011;6600;51.362;6.686;2022-07-23T01:36:17;2.43;;;2.23;;
13067;SDS011;6600;51.362;6.686;2022-07-23T01:38:42;2.30;;;2.10;;
13067;SDS011;6600;51.362;6.686;2022-07-23T01:41:08;3.53;;;2.53;;
13067;SDS011;6600;51.362;6.686;2022-07-23T01:43:33;2.33;;;2.00;;
13067;SDS011;6600;51.362;6.686;2022-07-23T01:45:58;2.80;;;2.20;;
13067;SDS011;6600;51.362;6.686;2022-07-23T01:48:24;3.80;;;2.60;;
13067;SDS011;6600;51.362;6.686;2022-07-23T01:50:49;3.20;;;2.17;;
13067;SDS011;6600;51.362;6.686;2022-07-23T01:53:15;2.43;;;2.23;;
13067;SDS011;6600;51.362;6.686;2022-07-23T01:55:41;2.60;;;2.20;;
13067;SDS011;6600;51.362;6.686;2022-07-23T01:58:07;4.40;;;2.80;;
13067;SDS011;6600;51.362;6.686;2022-07-23T02:00:32;3.47;;;2.77;;
13067;SDS011;6600;51.362;6.686;2022-07-23T02:02:58;3.93;;;2.10;;
13067;SDS011;6600;51.362;6.686;2022-07-23T02:05:23;3.13;;;2.20;;
13067;SDS011;6600;51.362;6.686;2022-07-23T02:07:49;2.87;;;2.23;;
13067;SDS011;6600;51.362;6.686;2022-07-23T02:10:15;3.73;;;2.63;;
13067;SDS011;6600;51.362;6.686;2022-07-23T02:12:40;3.60;;;3.10;;
13067;SDS011;6600;51.362;6.686;2022-07-23T02:15:06;3.10;;;2.30;;
13067;SDS011;6600;51.362;6.686;2022-07-23T02:17:31;3.97;;;2.50;;
13067;SDS011;6600;51.362;6.686;2022-07-23T02:19:57;3.03;;;2.70;;
13067;SDS011;6600;51.362;6.686;2022-07-23T02:22:22;6.43;;;3.00;;
13067;SDS011;6600;51.362;6.686;2022-07-23T02:24:48;4.87;;;3.03;;
13067;SDS011;6600;51.362;6.686;2022-07-23T02:27:13;4.53;;;3.00;;
13067;SDS011;6600;51.362;6.686;2022-07-23T02:29:38;4.63;;;2.97;;
13067;SDS011;6600;51.362;6.686;2022-07-23T02:32:04;3.80;;;2.50;;
13067;SDS011;6600;51.362;6.686;2022-07-23T02:34:29;3.00;;;2.73;;
13067;SDS011;6600;51.362;6.686;2022-07-23T02:36:54;2.97;;;2.23;;
13067;SDS011;6600;51.362;6.686;2022-07-23T02:39:20;3.47;;;2.27;;
13067;SDS011;6600;51.362;6.686;2022-07-23T02:41:45;3.20;;;2.50;;
13067;SDS011;6600;51.362;6.686;2022-07-23T02:44:11;4.70;;;2.80;;
13067;SDS011;6600;51.362;6.686;2022-07-23T02:46:36;3.43;;;2.80;;
13067;SDS011;6600;51.362;6.686;2022-07-23T02:49:01;4.40;;;2.80;;
13067;SDS011;6600;51.362;6.686;2022-07-23T02:51:27;3.53;;;2.53;;
13067;SDS011;6600;51.362;6.686;2022-07-23T02:53:52;3.80;;;3.10;;
13067;SDS011;6600;51.362;6.686;2022-07-23T02:56:18;6.40;;;3.07;;
13067;SDS011;6600;51.362;6.686;2022-07-23T02:58:43;4.10;;;2.97;;
13067;SDS011;6600;51.362;6.686;2022-07-23T03:01:08;4.00;;;2.67;;
13067;SDS011;6600;51.362;6.686;2022-07-23T03:03:34;3.63;;;2.87;;
13067;SDS011;6600;51.362;6.686;2022-07-23T03:05:59;4.57;;;2.57;;
13067;SDS011;6600;51.362;6.686;2022-07-23T03:08:24;2.60;;;2.37;;
13067;SDS011;6600;51.362;6.686;2022-07-23T03:10:50;4.83;;;3.17;;
13067;SDS011;6600;51.362;6.686;2022-07-23T03:13:15;3.23;;;2.40;;
13067;SDS011;6600;51.362;6.686;2022-07-23T03:15:41;4.53;;;3.23;;
13067;SDS011;6600;51.362;6.686;2022-07-23T03:18:06;3.57;;;2.63;;
13067;SDS011;6600;51.362;6.686;2022-07-23T03:20:31;5.03;;;2.70;;
13067;SDS011;6600;51.362;6.686;2022-07-23T03:22:57;3.93;;;2.70;;
13067;SDS011;6600;51.362;6.686;2022-07-23T03:25:22;6.10;;;3.03;;
13067;SDS011;6600;51.362;6.686;2022-07-23T03:27:47;3.00;;;2.33;;
13067;SDS011;6600;51.362;6.686;2022-07-23T03:30:13;4.10;;;3.33;;
13067;SDS011;6600;51.362;6.686;2022-07-23T03:32:38;4.00;;;2.60;;
13067;SDS011;6600;51.362;6.686;2022-07-23T03:35:04;3.53;;;2.40;;
13067;SDS011;6600;51.362;6.686;2022-07-23T03:37:30;3.70;;;2.87;;
13067;SDS011;6600;51.362;6.686;2022-07-23T03:39:55;4.10;;;2.33;;
13067;SDS011;6600;51.362;6.686;2022-07-23T03:42:20;2.70;;;2.50;;
13067;SDS011;6600;51.362;6.686;2022-07-23T03:44:46;4.23;;;2.67;;
13067;SDS011;6600;51.362;6.686;2022-07-23T03:47:11;3.97;;;2.63;;
13067;SDS011;6600;51.362;6.686;2022-07-23T03:49:36;3.60;;;2.60;;
13067;SDS011;6600;51.362;6.686;2022-07-23T03:52:02;2.87;;;2.43;;
13067;SDS011;6600;51.362;6.686;2022-07-23T03:54:27;3.30;;;2.63;;
13067;SDS011;6600;51.362;6.686;2022-07-23T03:56:53;2.63;;;1.97;;
13067;SDS011;6600;51.362;6.686;2022-07-23T03:59:18;2.70;;;2.10;;
13067;SDS011;6600;51.362;6.686;2022-07-23T04:01:43;4.63;;;2.87;;
13067;SDS011;6600;51.362;6.686;2022-07-23T04:04:09;3.37;;;2.67;;
13067;SDS011;6600;51.362;6.686;2022-07-23T04:06:34;2.70;;;2.10;;
13067;SDS011;6600;51.362;6.686;2022-07-23T04:09:00;4.83;;;2.60;;
13067;SDS011;6600;51.362;6.686;2022-07-23T04:11:26;3.90;;;2.50;;
13067;SDS011;6600;51.362;6.686;2022-07-23T04:13:51;3.03;;;2.60;;
13067;SDS011;6600;51.362;6.686;2022-07-23T04:16:16;3.00;;;2.53;;
13067;SDS011;6600;51.362;6.686;2022-07-23T04:18:42;3.80;;;2.70;;
13067;SDS011;6600;51.362;6.686;2022-07-23T04:21:07;2.97;;;2.17;;
13067;SDS011;6600;51.362;6.686;2022-07-23T04:23:32;3.10;;;2.80;;
13067;SDS011;6600;51.362;6.686;2022-07-23T04:25:58;4.53;;;2.77;;
13067;SDS011;6600;51.362;6.686;2022-07-23T04:28:23;5.70;;;2.60;;
13067;SDS011;6600;51.362;6.686;2022-07-23T04:30:48;2.83;;;2.40;;
13067;SDS011;6600;51.362;6.686;2022-07-23T04:33:14;3.37;;;2.33;;
13067;SDS011;6600;51.362;6.686;2022-07-23T04:35:39;3.43;;;2.60;;
13067;SDS011;6600;51.362;6.686;2022-07-23T04:38:04;3.43;;;2.33;;
13067;SDS011;6600;51.362;6.686;2022-07-23T04:40:30;3.47;;;2.30;;
13067;SDS011;6600;51.362;6.686;2022-07-23T04:42:55;2.90;;;2.20;;
13067;SDS011;6600;51.362;6.686;2022-07-23T04:45:21;3.87;;;2.47;;
13067;SDS011;6600;51.362;6.686;2022-07-23T04:47:46;2.97;;;2.40;;
13067;SDS011;6600;51.362;6.686;2022-07-23T04:50:12;2.37;;;2.17;;
13067;SDS011;6600;51.362;6.686;2022-07-23T04:52:37;3.27;;;2.30;;
13067;SDS011;6600;51.362;6.686;2022-07-23T04:55:03;3.23;;;2.43;;
13067;SDS011;6600;51.362;6.686;2022-07-23T04:57:28;3.60;;;2.67;;
13067;SDS011;6600;51.362;6.686;2022-07-23T04:59:54;3.63;;;2.70;;
13067;SDS011;6600;51.362;6.686;2022-07-23T05:02:19;2.23;;;2.03;;
13067;SDS011;6600;51.362;6.686;2022-07-23T05:04:44;3.33;;;2.43;;
13067;SDS011;6600;51.362;6.686;2022-07-23T05:07:10;2.50;;;2.20;;
13067;SDS011;6600;51.362;6.686;2022-07-23T05:09:35;3.50;;;2.80;;
13067;SDS011;6600;51.362;6.686;2022-07-23T05:12:00;4.83;;;3.00;;
13067;SDS011;6600;51.362;6.686;2022-07-23T05:14:26;3.13;;;2.67;;
13067;SDS011;6600;51.362;6.686;2022-07-23T05:16:52;3.53;;;2.83;;
13067;SDS011;6600;51.362;6.686;2022-07-23T05:19:18;4.27;;;2.87;;
13067;SDS011;6600;51.362;6.686;2022-07-23T05:21:43;4.93;;;2.80;;
13067;SDS011;6600;51.362;6.686;2022-07-23T05:24:08;4.03;;;2.73;;
13067;SDS011;6600;51.362;6.686;2022-07-23T05:26:34;2.97;;;2.67;;
13067;SDS011;6600;51.362;6.686;2022-07-23T05:28:59;4.20;;;3.33;;
13067;SDS011;6600;51.362;6.686;2022-07-23T05:31:25;2.90;;;2.60;;
13067;SDS011;6600;51.362;6.686;2022-07-23T05:33:50;4.13;;;2.93;;
13067;SDS011;6600;51.362;6.686;2022-07-23T05:36:15;4.63;;;3.50;;
13067;SDS011;6600;51.362;6.686;2022-07-23T05:38:41;6.13;;;3.37;;
13067;SDS011;6600;51.362;6.686;2022-07-23T05:41:06;5.87;;;3.80;;
13067;SDS011;6600;51.362;6.686;2022-07-23T05:43:32;4.83;;;3.07;;
13067;SDS011;6600;51.362;6.686;2022-07-23T05:45:57;3.10;;;2.80;;
13067;SDS011;6600;51.362;6.686;2022-07-23T05:48:22;4.73;;;3.50;;
13067;SDS011;6600;51.362;6.686;2022-07-23T05:50:48;4.93;;;3.03;;
13067;SDS011;6600;51.362;6.686;2022-07-23T05:53:13;3.90;;;2.70;;
13067;SDS011;6600;51.362;6.686;2022-07-23T05:55:38;2.97;;;2.67;;
13067;SDS011;6600;51.362;6.686;2022-07-23T05:58:04;3.23;;;2.93;;
13067;SDS011;6600;51.362;6.686;2022-07-23T06:00:30;3.60;;;2.80;;
13067;SDS011;6600;51.362;6.686;2022-07-23T06:02:55;4.37;;;3.63;;
13067;SDS011;6600;51.362;6.686;2022-07-23T06:05:21;6.00;;;3.50;;
13067;SDS011;6600;51.362;6.686;2022-07-23T06:07:47;5.70;;;4.17;;
13067;SDS011;6600;51.362;6.686;2022-07-23T06:10:12;3.67;;;3.07;;
13067;SDS011;6600;51.362;6.686;2022-07-23T06:12:38;5.17;;;3.83;;
13067;SDS011;6600;51.362;6.686;2022-07-23T06:15:03;5.93;;;3.20;;
13067;SDS011;6600;51.362;6.686;2022-07-23T06:17:29;3.63;;;2.80;;
13067;SDS011;6600;51.362;6.686;2022-07-23T06:19:55;4.17;;;3.13;;
13067;SDS011;6600;51.362;6.686;2022-07-23T06:22:20;6.20;;;3.83;;
13067;SDS011;6600;51.362;6.686;2022-07-23T06:24:46;5.63;;;4.13;;
13067;SDS011;6600;51.362;6.686;2022-07-23T06:27:12;5.47;;;3.37;;
13067;SDS011;6600;51.362;6.686;2022-07-23T06:29:37;6.13;;;3.83;;
13067;SDS011;6600;51.362;6.686;2022-07-23T06:32:05;6.10;;;4.33;;
13067;SDS011;6600;51.362;6.686;2022-07-23T06:34:31;6.23;;;3.73;;
13067;SDS011;6600;51.362;6.686;2022-07-23T06:36:56;5.00;;;3.67;;
13067;SDS011;6600;51.362;6.686;2022-07-23T06:39:21;6.80;;;3.60;;
13067;SDS011;6600;51.362;6.686;2022-07-23T06:41:47;4.57;;;3.40;;
13067;SDS011;6600;51.362;6.686;2022-07-23T06:44:12;5.17;;;4.33;;
13067;SDS011;6600;51.362;6.686;2022-07-23T06:46:37;4.80;;;3.83;;
13067;SDS011;6600;51.362;6.686;2022-07-23T06:49:03;6.33;;;4.70;;
13067;SDS011;6600;51.362;6.686;2022-07-23T06:51:29;7.30;;;4.87;;
13067;SDS011;6600;51.362;6.686;2022-07-23T06:53:54;5.37;;;4.27;;
13067;SDS011;6600;51.362;6.686;2022-07-23T06:56:20;4.83;;;3.83;;
13067;SDS011;6600;51.362;6.686;2022-07-23T06:58:45;6.03;;;4.83;;
13067;SDS011;6600;51.362;6.686;2022-07-23T07:01:11;5.77;;;4.13;;
13067;SDS011;6600;51.362;6.686;2022-07-23T07:03:36;4.60;;;3.87;;
13067;SDS011;6600;51.362;6.686;2022-07-23T07:06:02;6.47;;;4.47;;
13067;SDS011;6600;51.362;6.686;2022-07-23T07:08:28;6.10;;;3.87;;
13067;SDS011;6600;51.362;6.686;2022-07-23T07:10:53;7.23;;;4.50;;
13067;SDS011;6600;51.362;6.686;2022-07-23T07:13:18;4.83;;;4.20;;
13067;SDS011;6600;51.362;6.686;2022-07-23T07:15:44;6.50;;;4.23;;
13067;SDS011;6600;51.362;6.686;2022-07-23T07:18:09;5.87;;;3.70;;
13067;SDS011;6600;51.362;6.686;2022-07-23T07:20:35;4.83;;;3.73;;
13067;SDS011;6600;51.362;6.686;2022-07-23T07:23:00;5.50;;;3.83;;
13067;SDS011;6600;51.362;6.686;2022-07-23T07:25:25;5.27;;;3.57;;
13067;SDS011;6600;51.362;6.686;2022-07-23T07:27:51;6.17;;;3.63;;
13067;SDS011;6600;51.362;6.686;2022-07-23T07:30:16;5.73;;;3.67;;
13067;SDS011;6600;51.362;6.686;2022-07-23T07:32:42;3.50;;;2.83;;
13067;SDS011;6600;51.362;6.686;2022-07-23T07:35:08;4.80;;;3.30;;
13067;SDS011;6600;51.362;6.686;2022-07-23T07:37:33;4.73;;;3.13;;
13067;SDS011;6600;51.362;6.686;2022-07-23T07:39:59;3.73;;;2.97;;
13067;SDS011;6600;51.362;6.686;2022-07-23T07:42:24;3.57;;;2.90;;
13067;SDS011;6600;51.362;6.686;2022-07-23T07:44:50;5.07;;;3.77;;
13067;SDS011;6600;51.362;6.686;2022-07-23T07:47:15;3.07;;;2.77;;
13067;SDS011;6600;51.362;6.686;2022-07-23T07:49:41;5.80;;;3.60;;
13067;SDS011;6600;51.362;6.686;2022-07-23T07:52:07;4.67;;;3.77;;
13067;SDS011;6600;51.362;6.686;2022-07-23T07:54:33;6.10;;;3.70;;
13067;SDS011;6600;51.362;6.686;2022-07-23T07:56:58;5.00;;;3.60;;
13067;SDS011;6600;51.362;6.686;2022-07-23T07:59:24;3.63;;;2.87;;
13067;SDS011;6600;51.362;6.686;2022-07-23T08:01:50;4.20;;;3.07;;
13067;SDS011;6600;51.362;6.686;2022-07-23T08:04:15;3.27;;;2.70;;
13067;SDS011;6600;51.362;6.686;2022-07-23T08:06:41;3.17;;;2.23;;
13067;SDS011;6600;51.362;6.686;2022-07-23T08:09:06;3.47;;;2.77;;
13067;SDS011;6600;51.362;6.686;2022-07-23T08:11:31;2.73;;;2.37;;
13067;SDS011;6600;51.362;6.686;2022-07-23T08:13:57;3.40;;;2.20;;
13067;SDS011;6600;51.362;6.686;2022-07-23T08:16:22;3.03;;;1.97;;
13067;SDS011;6600;51.362;6.686;2022-07-23T08:18:47;5.40;;;2.10;;
13067;SDS011;6600;51.362;6.686;2022-07-23T08:21:13;2.03;;;1.80;;
13067;SDS011;6600;51.362;6.686;2022-07-23T08:23:38;2.27;;;2.07;;
13067;SDS011;6600;51.362;6.686;2022-07-23T08:26:04;2.07;;;1.93;;
13067;SDS011;6600;51.362;6.686;2022-07-23T08:28:29;2.93;;;2.10;;
13067;SDS011;6600;51.362;6.686;2022-07-23T08:30:58;3.93;;;1.90;;
13067;SDS011;6600;51.362;6.686;2022-07-23T08:33:24;2.23;;;2.00;;
13067;SDS011;6600;51.362;6.686;2022-07-23T08:35:49;1.97;;;1.87;;
13067;SDS011;6600;51.362;6.686;2022-07-23T08:38:17;2.70;;;1.77;;
13067;SDS011;6600;51.362;6.686;2022-07-23T08:40:46;1.87;;;1.77;;
13067;SDS011;6600;51.362;6.686;2022-07-23T08:43:17;1.77;;;1.47;;
13067;SDS011;6600;51.362;6.686;2022-07-23T08:45:44;3.30;;;2.20;;
13067;SDS011;6600;51.362;6.686;2022-07-23T08:48:13;2.60;;;1.93;;
13067;SDS011;6600;51.362;6.686;2022-07-23T08:50:44;3.90;;;2.00;;
13067;SDS011;6600;51.362;6.686;2022-07-23T08:53:11;3.97;;;1.63;;
13067;SDS011;6600;51.362;6.686;2022-07-23T08:55:37;1.83;;;1.73;;
13067;SDS011;6600;51.362;6.686;2022-07-23T08:58:03;2.17;;;1.60;;
13067;SDS011;6600;51.362;6.686;2022-07-23T09:00:30;2.43;;;1.83;;
13067;SDS011;6600;51.362;6.686;2022-07-23T09:02:56;2.00;;;1.73;;
13067;SDS011;6600;51.362;6.686;2022-07-23T09:05:21;2.77;;;2.00;;
13067;SDS011;6600;51.362;6.686;2022-07-23T09:10:45;3.07;;;2.37;;
13067;SDS011;6600;51.362;6.686;2022-07-23T09:13:45;3.40;;;2.07;;
13067;SDS011;6600;51.362;6.686;2022-07-23T09:16:12;2.60;;;2.20;;
13067;SDS011;6600;51.362;6.686;2022-07-23T09:23:51;3.30;;;2.80;;
13067;SDS011;6600;51.362;6.686;2022-07-23T09:29:15;1.53;;;1.43;;
13067;SDS011;6600;51.362;6.686;2022-07-23T09:36:49;7.13;;;2.43;;
13067;SDS011;6600;51.362;6.686;2022-07-23T09:39:16;1.93;;;1.83;;
13067;SDS011;6600;51.362;6.686;2022-07-23T09:41:54;2.07;;;1.70;;
13067;SDS011;6600;51.362;6.686;2022-07-23T09:44:21;1.80;;;1.60;;
13067;SDS011;6600;51.362;6.686;2022-07-23T09:46:48;2.30;;;2.10;;
13067;SDS011;6600;51.362;6.686;2022-07-23T09:49:21;2.80;;;1.60;;
13067;SDS011;6600;51.362;6.686;2022-07-23T09:51:52;1.83;;;1.70;;
13067;SDS011;6600;51.362;6.686;2022-07-23T09:54:23;1.70;;;1.60;;
13067;SDS011;6600;51.362;6.686;2022-07-23T09:56:52;1.70;;;1.60;;
13067;SDS011;6600;51.362;6.686;2022-07-23T09:59:18;1.70;;;1.60;;
13067;SDS011;6600;51.362;6.686;2022-07-23T10:01:58;1.60;;;1.47;;
13067;SDS011;6600;51.362;6.686;2022-07-23T10:04:25;1.97;;;1.60;;
13067;SDS011;6600;51.362;6.686;2022-07-23T10:06:56;2.23;;;1.80;;
13067;SDS011;6600;51.362;6.686;2022-07-23T10:09:24;1.70;;;1.60;;
13067;SDS011;6600;51.362;6.686;2022-07-23T10:11:58;3.10;;;1.70;;
13067;SDS011;6600;51.362;6.686;2022-07-23T10:14:39;1.97;;;1.63;;
13067;SDS011;6600;51.362;6.686;2022-07-23T10:17:05;2.73;;;1.73;;
13067;SDS011;6600;51.362;6.686;2022-07-23T10:19:31;1.50;;;1.40;;
13067;SDS011;6600;51.362;6.686;2022-07-23T10:22:01;1.70;;;1.60;;
13067;SDS011;6600;51.362;6.686;2022-07-23T10:28:04;1.27;;;1.17;;
13067;SDS011;6600;51.362;6.686;2022-07-23T10:33:25;2.10;;;1.57;;
13067;SDS011;6600;51.362;6.686;2022-07-23T10:36:01;1.20;;;1.20;;
13067;SDS011;6600;51.362;6.686;2022-07-23T10:38:45;2.27;;;1.53;;
13067;SDS011;6600;51.362;6.686;2022-07-23T10:41:13;1.80;;;1.70;;
13067;SDS011;6600;51.362;6.686;2022-07-23T10:43:38;1.73;;;1.40;;
13067;SDS011;6600;51.362;6.686;2022-07-23T10:49:29;1.00;;;1.00;;
13067;SDS011;6600;51.362;6.686;2022-07-23T10:57:26;1.40;;;1.30;;
13067;SDS011;6600;51.362;6.686;2022-07-23T11:02:43;1.00;;;1.00;;
13067;SDS011;6600;51.362;6.686;2022-07-23T11:05:11;1.30;;;1.20;;
13067;SDS011;6600;51.362;6.686;2022-07-23T11:10:34;1.00;;;1.00;;
13067;SDS011;6600;51.362;6.686;2022-07-23T11:34:28;1.70;;;1.33;;
13067;SDS011;6600;51.362;6.686;2022-07-23T11:37:25;1.47;;;1.37;;
13067;SDS011;6600;51.362;6.686;2022-07-23T11:39:55;1.60;;;1.50;;
13067;SDS011;6600;51.362;6.686;2022-07-23T11:42:21;1.30;;;1.30;;
13067;SDS011;6600;51.362;6.686;2022-07-23T11:44:48;1.60;;;1.30;;
13067;SDS011;6600;51.362;6.686;2022-07-23T11:47:13;1.13;;;1.00;;
13067;SDS011;6600;51.362;6.686;2022-07-23T11:49:38;1.27;;;1.13;;
13067;SDS011;6600;51.362;6.686;2022-07-23T11:52:16;1.60;;;1.30;;
13067;SDS011;6600;51.362;6.686;2022-07-23T11:54:47;1.27;;;1.17;;
13067;SDS011;6600;51.362;6.686;2022-07-23T11:57:13;1.50;;;1.40;;
13067;SDS011;6600;51.362;6.686;2022-07-23T11:59:39;1.90;;;1.10;;
13067;SDS011;6600;51.362;6.686;2022-07-23T12:02:06;2.27;;;1.30;;
13067;SDS011;6600;51.362;6.686;2022-07-23T12:09:58;1.90;;;1.13;;
13067;SDS011;6600;51.362;6.686;2022-07-23T12:12:25;1.53;;;1.20;;
13067;SDS011;6600;51.362;6.686;2022-07-23T12:17:18;1.40;;;1.37;;
13067;SDS011;6600;51.362;6.686;2022-07-23T12:19:45;1.57;;;1.10;;
13067;SDS011;6600;51.362;6.686;2022-07-23T12:22:11;1.73;;;1.40;;
13067;SDS011;6600;51.362;6.686;2022-07-23T12:24:56;1.60;;;1.50;;
13067;SDS011;6600;51.362;6.686;2022-07-23T12:27:24;2.30;;;1.33;;
13067;SDS011;6600;51.362;6.686;2022-07-23T12:29:50;1.27;;;1.23;;
13067;SDS011;6600;51.362;6.686;2022-07-23T12:32:20;1.80;;;1.47;;
13067;SDS011;6600;51.362;6.686;2022-07-23T12:37:36;2.13;;;1.13;;
13067;SDS011;6600;51.362;6.686;2022-07-23T12:40:25;1.10;;;1.10;;
13067;SDS011;6600;51.362;6.686;2022-07-23T12:45:26;1.80;;;1.30;;
13067;SDS011;6600;51.362;6.686;2022-07-23T12:47:54;1.80;;;1.27;;
13067;SDS011;6600;51.362;6.686;2022-07-23T12:53:02;0.90;;;0.90;;
13067;SDS011;6600;51.362;6.686;2022-07-23T12:55:31;1.30;;;1.20;;
13067;SDS011;6600;51.362;6.686;2022-07-23T12:58:04;1.73;;;1.63;;
13067;SDS011;6600;51.362;6.686;2022-07-23T13:03:21;1.50;;;1.40;;
13067;SDS011;6600;51.362;6.686;2022-07-23T13:05:53;1.03;;;1.00;;
13067;SDS011;6600;51.362;6.686;2022-07-23T13:08:19;1.43;;;1.33;;
13067;SDS011;6600;51.362;6.686;2022-07-23T13:10:44;1.30;;;1.20;;
13067;SDS011;6600;51.362;6.686;2022-07-23T13:13:13;1.07;;;1.00;;
13067;SDS011;6600;51.362;6.686;2022-07-23T13:15:39;1.47;;;1.10;;
13067;SDS011;6600;51.362;6.686;2022-07-23T13:18:04;1.27;;;1.10;;
13067;SDS011;6600;51.362;6.686;2022-07-23T13:20:30;1.40;;;1.30;;
13067;SDS011;6600;51.362;6.686;2022-07-23T13:22:57;1.80;;;1.20;;
13067;SDS011;6600;51.362;6.686;2022-07-23T13:25:23;1.83;;;1.00;;
13067;SDS011;6600;51.362;6.686;2022-07-23T13:27:48;1.07;;;1.07;;
13067;SDS011;6600;51.362;6.686;2022-07-23T13:30:13;2.57;;;1.57;;
13067;SDS011;6600;51.362;6.686;2022-07-23T13:32:40;1.30;;;1.20;;
13067;SDS011;6600;51.362;6.686;2022-07-23T13:35:05;1.40;;;1.20;;
13067;SDS011;6600;51.362;6.686;2022-07-23T13:37:31;1.90;;;1.07;;
13067;SDS011;6600;51.362;6.686;2022-07-23T13:39:56;3.40;;;1.20;;
13067;SDS011;6600;51.362;6.686;2022-07-23T13:42:21;1.37;;;1.27;;
13067;SDS011;6600;51.362;6.686;2022-07-23T13:44:47;1.73;;;1.60;;
13067;SDS011;6600;51.362;6.686;2022-07-23T13:47:12;1.40;;;1.30;;
13067;SDS011;6600;51.362;6.686;2022-07-23T13:49:38;1.20;;;1.10;;
13067;SDS011;6600;51.362;6.686;2022-07-23T13:52:03;1.83;;;1.37;;
13067;SDS011;6600;51.362;6.686;2022-07-23T13:54:29;1.13;;;1.03;;
13067;SDS011;6600;51.362;6.686;2022-07-23T13:56:55;1.30;;;1.20;;
13067;SDS011;6600;51.362;6.686;2022-07-23T13:59:21;1.50;;;1.40;;
13067;SDS011;6600;51.362;6.686;2022-07-23T14:01:46;3.60;;;1.90;;
13067;SDS011;6600;51.362;6.686;2022-07-23T14:04:12;1.37;;;1.00;;
13067;SDS011;6600;51.362;6.686;2022-07-23T14:06:37;1.20;;;1.10;;
13067;SDS011;6600;51.362;6.686;2022-07-23T14:09:03;1.60;;;1.50;;
13067;SDS011;6600;51.362;6.686;2022-07-23T14:11:28;2.77;;;1.27;;
13067;SDS011;6600;51.362;6.686;2022-07-23T14:13:55;1.63;;;1.27;;
13067;SDS011;6600;51.362;6.686;2022-07-23T14:16:21;1.57;;;1.30;;
13067;SDS011;6600;51.362;6.686;2022-07-23T14:18:46;1.03;;;1.00;;
13067;SDS011;6600;51.362;6.686;2022-07-23T14:21:11;1.20;;;1.10;;
13067;SDS011;6600;51.362;6.686;2022-07-23T14:23:37;1.10;;;1.00;;
13067;SDS011;6600;51.362;6.686;2022-07-23T14:26:02;1.20;;;1.10;;
13067;SDS011;6600;51.362;6.686;2022-07-23T14:28:27;1.60;;;1.27;;
13067;SDS011;6600;51.362;6.686;2022-07-23T14:30:53;1.77;;;1.40;;
13067;SDS011;6600;51.362;6.686;2022-07-23T14:33:18;1.20;;;1.07;;
13067;SDS011;6600;51.362;6.686;2022-07-23T14:35:44;1.33;;;1.23;;
13067;SDS011;6600;51.362;6.686;2022-07-23T14:38:10;1.90;;;1.10;;
13067;SDS011;6600;51.362;6.686;2022-07-23T14:40:35;2.13;;;1.53;;
13067;SDS011;6600;51.362;6.686;2022-07-23T14:43:00;1.90;;;1.57;;
13067;SDS011;6600;51.362;6.686;2022-07-23T14:45:26;1.00;;;1.00;;
13067;SDS011;6600;51.362;6.686;2022-07-23T14:47:53;1.60;;;1.50;;
13067;SDS011;6600;51.362;6.686;2022-07-23T14:50:19;1.50;;;1.40;;
13067;SDS011;6600;51.362;6.686;2022-07-23T14:52:44;1.07;;;1.07;;
13067;SDS011;6600;51.362;6.686;2022-07-23T14:55:09;0.83;;;0.83;;
13067;SDS011;6600;51.362;6.686;2022-07-23T14:57:35;1.30;;;1.20;;
13067;SDS011;6600;51.362;6.686;2022-07-23T15:00:00;1.30;;;1.17;;
13067;SDS011;6600;51.362;6.686;2022-07-23T15:02:26;1.37;;;1.20;;
13067;SDS011;6600;51.362;6.686;2022-07-23T15:04:51;1.67;;;1.30;;
13067;SDS011;6600;51.362;6.686;2022-07-23T15:07:16;0.90;;;0.90;;
13067;SDS011;6600;51.362;6.686;2022-07-23T15:09:42;1.63;;;1.10;;
13067;SDS011;6600;51.362;6.686;2022-07-23T15:12:07;1.70;;;1.60;;
13067;SDS011;6600;51.362;6.686;2022-07-23T15:14:32;1.20;;;1.17;;
13067;SDS011;6600;51.362;6.686;2022-07-23T15:16:58;1.13;;;1.10;;
13067;SDS011;6600;51.362;6.686;2022-07-23T15:19:23;1.57;;;1.33;;
13067;SDS011;6600;51.362;6.686;2022-07-23T15:21:49;1.20;;;1.20;;
13067;SDS011;6600;51.362;6.686;2022-07-23T15:24:14;1.20;;;1.10;;
13067;SDS011;6600;51.362;6.686;2022-07-23T15:26:39;1.40;;;1.30;;
13067;SDS011;6600;51.362;6.686;2022-07-23T15:29:05;1.17;;;1.00;;
13067;SDS011;6600;51.362;6.686;2022-07-23T15:31:31;1.87;;;1.20;;
13067;SDS011;6600;51.362;6.686;2022-07-23T15:33:57;1.37;;;1.27;;
13067;SDS011;6600;51.362;6.686;2022-07-23T15:36:22;1.03;;;0.97;;
13067;SDS011;6600;51.362;6.686;2022-07-23T15:38:48;1.30;;;1.20;;
13067;SDS011;6600;51.362;6.686;2022-07-23T15:41:13;1.20;;;1.10;;
13067;SDS011;6600;51.362;6.686;2022-07-23T15:43:39;1.30;;;1.20;;
13067;SDS011;6600;51.362;6.686;2022-07-23T15:46:05;1.63;;;1.40;;
13067;SDS011;6600;51.362;6.686;2022-07-23T15:48:30;0.90;;;0.90;;
13067;SDS011;6600;51.362;6.686;2022-07-23T15:50:56;1.33;;;1.23;;
13067;SDS011;6600;51.362;6.686;2022-07-23T15:53:21;1.63;;;1.10;;
13067;SDS011;6600;51.362;6.686;2022-07-23T15:55:47;1.50;;;1.40;;
13067;SDS011;6600;51.362;6.686;2022-07-23T15:58:13;1.73;;;1.37;;
13067;SDS011;6600;51.362;6.686;2022-07-23T16:00:38;1.40;;;1.30;;
13067;SDS011;6600;51.362;6.686;2022-07-23T16:03:04;1.43;;;1.27;;
13067;SDS011;6600;51.362;6.686;2022-07-23T16:05:29;1.43;;;1.33;;
13067;SDS011;6600;51.362;6.686;2022-07-23T16:07:55;1.17;;;1.07;;
13067;SDS011;6600;51.362;6.686;2022-07-23T16:10:21;1.50;;;1.40;;
13067;SDS011;6600;51.362;6.686;2022-07-23T16:12:46;1.23;;;1.13;;